createdAt,value
2023-05-21T00:00:00.208Z,98705.38
2023-05-21T00:02:30.450Z,98708.91
2023-05-21T00:04:58.099Z,98711.25
2023-05-21T00:07:25.795Z,98711.25
2023-05-21T00:09:53.317Z,98706.56
2023-05-21T00:12:21.022Z,98709.28
2023-05-21T00:14:48.605Z,98715.50
2023-05-21T00:17:16.298Z,98711.22
2023-05-21T00:19:44.615Z,98710.81
2023-05-21T00:22:12.468Z,98719.38
2023-05-21T00:24:39.981Z,98715.94
2023-05-21T00:27:07.623Z,98721.72
2023-05-21T00:29:35.569Z,98713.19
2023-05-21T00:32:04.043Z,98717.47
2023-05-21T00:34:31.836Z,98722.53
2023-05-21T00:36:59.429Z,98711.25
2023-05-21T00:39:27.026Z,98714.78
2023-05-21T00:41:57.122Z,98718.31
2023-05-21T00:44:25.730Z,98720.66
2023-05-21T00:46:56.476Z,98728.50
2023-05-21T00:49:24.771Z,98724.19
2023-05-21T00:51:53.294Z,98724.25
2023-05-21T00:54:21.608Z,98728.97
2023-05-21T00:56:49.604Z,98723.53
2023-05-21T00:59:17.545Z,98732.50
2023-05-21T01:01:46.011Z,98729.81
2023-05-21T01:04:13.729Z,98734.50
2023-05-21T01:06:42.974Z,98723.97
2023-05-21T01:09:10.590Z,98716.22
2023-05-21T01:11:40.338Z,98723.66
2023-05-21T01:14:11.699Z,98726.03
2023-05-21T01:16:41.298Z,98727.25
2023-05-21T01:19:14.006Z,98729.63
2023-05-21T01:21:47.389Z,98730.84
2023-05-21T01:24:16.327Z,98726.97
2023-05-21T01:26:44.500Z,98715.31
2023-05-21T01:29:13.640Z,98719.59
2023-05-21T01:31:56.026Z,98732.13
2023-05-21T01:34:29.862Z,98731.78
2023-05-21T01:37:08.362Z,98736.44
2023-05-21T01:39:41.104Z,98738.41
2023-05-21T01:42:11.321Z,98745.06
2023-05-21T01:44:40.556Z,98734.94
2023-05-21T01:47:08.221Z,98725.56
2023-05-21T01:49:36.129Z,98736.53
2023-05-21T01:52:05.213Z,98742.41
2023-05-21T01:54:32.840Z,98740.44
2023-05-21T01:57:00.426Z,98740.84
2023-05-21T01:59:30.305Z,98743.16
2023-05-21T02:01:58.087Z,98751.00
2023-05-21T02:04:26.131Z,98756.06
2023-05-21T02:06:55.134Z,98752.56
2023-05-21T02:09:22.981Z,98752.94
2023-05-21T02:11:50.874Z,98749.81
2023-05-21T02:14:18.636Z,98754.47
2023-05-21T02:16:46.633Z,98751.34
2023-05-21T02:19:14.708Z,98754.84
2023-05-21T02:21:42.429Z,98759.91
2023-05-21T02:24:09.986Z,98764.53
2023-05-21T02:26:37.729Z,98766.47
2023-05-21T02:29:05.503Z,98768.78
2023-05-21T02:31:33.292Z,98763.28
2023-05-21T02:34:01.134Z,98772.97
2023-05-21T02:36:29.286Z,98778.41
2023-05-21T02:38:58.041Z,98755.72
2023-05-21T02:41:27.245Z,98779.03
2023-05-21T02:43:54.793Z,98780.53
2023-05-21T02:46:22.593Z,98773.41
2023-05-21T02:48:50.294Z,98774.03
2023-05-21T02:51:17.989Z,98778.59
2023-05-21T02:53:45.788Z,98780.84
2023-05-21T02:56:13.979Z,98784.50
2023-05-21T02:58:42.048Z,98787.66
2023-05-21T03:01:09.929Z,98776.34
2023-05-21T03:03:37.661Z,98782.88
2023-05-21T03:06:05.704Z,98792.91
2023-05-21T03:08:33.420Z,98787.94
2023-05-21T03:11:01.204Z,98793.44
2023-05-21T03:13:28.950Z,98798.84
2023-05-21T03:15:56.748Z,98788.22
2023-05-21T03:18:24.700Z,98796.44
2023-05-21T03:20:53.298Z,98797.06
2023-05-21T03:23:20.933Z,98801.22
2023-05-21T03:25:48.932Z,98793.63
2023-05-21T03:28:18.032Z,98801.47
2023-05-21T03:30:53.680Z,98798.50
2023-05-21T03:33:40.773Z,98800.88
2023-05-21T03:36:37.553Z,98796.94
2023-05-21T03:39:05.266Z,98807.81
2023-05-21T03:41:34.753Z,98807.63
2023-05-21T03:44:09.053Z,98802.78
2023-05-21T03:47:02.765Z,98806.09
2023-05-21T03:49:33.881Z,98807.63
2023-05-21T03:52:01.616Z,98818.91
2023-05-21T03:54:29.355Z,98813.47
2023-05-21T03:57:01.872Z,98811.22
2023-05-21T03:59:29.788Z,98804.50
2023-05-21T04:01:57.397Z,98809.69
2023-05-21T04:04:25.142Z,98812.59
2023-05-21T04:06:54.554Z,98813.00
2023-05-21T04:09:23.916Z,98817.44
2023-05-21T04:11:52.948Z,98818.53
2023-05-21T04:14:20.508Z,98815.81
2023-05-21T04:16:49.539Z,98817.88
2023-05-21T04:19:17.223Z,98819.84
2023-05-21T04:21:45.357Z,98820.59
2023-05-21T04:24:15.265Z,98805.69
2023-05-21T04:27:03.105Z,98809.66
2023-05-21T04:29:32.383Z,98823.00
2023-05-21T04:32:00.053Z,98816.72
2023-05-21T04:34:27.682Z,98821.84
2023-05-21T04:36:55.338Z,98825.47
2023-05-21T04:39:23.010Z,98824.16
2023-05-21T04:41:51.093Z,98821.59
2023-05-21T04:44:18.916Z,98812.63
2023-05-21T04:46:49.270Z,98817.66
2023-05-21T04:49:18.629Z,98808.44
2023-05-21T04:51:47.093Z,98813.97
2023-05-21T04:54:15.039Z,98817.41
2023-05-21T04:56:42.735Z,98823.97
2023-05-21T04:59:10.465Z,98815.66
2023-05-21T05:01:38.863Z,98822.94
2023-05-21T05:04:06.896Z,98825.06
2023-05-21T05:06:34.963Z,98820.84
2023-05-21T05:09:02.692Z,98819.41
2023-05-21T05:11:31.444Z,98823.53
2023-05-21T05:13:59.170Z,98816.81
2023-05-21T05:16:26.956Z,98812.00
2023-05-21T05:18:57.724Z,98816.19
2023-05-21T05:21:25.482Z,98818.03
2023-05-21T05:23:53.110Z,98810.91
2023-05-21T05:26:26.406Z,98813.84
2023-05-21T05:28:54.015Z,98815.56
2023-05-21T05:31:21.852Z,98810.66
2023-05-21T05:33:49.810Z,98816.66
2023-05-21T05:36:17.417Z,98809.78
2023-05-21T05:38:45.127Z,98810.19
2023-05-21T05:41:12.771Z,98813.03
2023-05-21T05:43:40.784Z,98814.31
2023-05-21T05:46:08.868Z,98813.75
2023-05-21T05:48:36.542Z,98812.38
2023-05-21T05:51:04.365Z,98807.44
2023-05-21T05:53:32.729Z,98805.31
2023-05-21T05:56:00.569Z,98811.47
2023-05-21T05:58:33.449Z,98815.13
2023-05-21T06:01:10.650Z,98807.78
2023-05-21T06:03:38.959Z,98808.06
2023-05-21T06:06:12.388Z,98807.00
2023-05-21T06:08:40.949Z,98808.50
2023-05-21T06:11:08.854Z,98801.34
2023-05-21T06:13:36.619Z,98804.94
2023-05-21T06:16:06.917Z,98807.50
2023-05-21T06:18:34.768Z,98803.91
2023-05-21T06:21:02.502Z,98803.53
2023-05-21T06:23:32.879Z,98799.44
2023-05-21T06:26:01.047Z,98798.31
2023-05-21T06:28:29.110Z,98793.16
2023-05-21T06:30:56.811Z,98797.69
2023-05-21T06:33:27.830Z,98802.72
2023-05-21T06:35:56.171Z,98808.50
2023-05-21T06:38:24.635Z,98795.84
2023-05-21T06:40:53.092Z,98796.59
2023-05-21T06:43:38.224Z,98792.91
2023-05-21T06:46:24.541Z,98790.28
2023-05-21T06:48:53.172Z,98794.66
2023-05-21T06:51:21.767Z,98787.16
2023-05-21T06:53:49.487Z,98786.41
2023-05-21T06:56:18.813Z,98785.47
2023-05-21T06:58:47.108Z,98787.41
2023-05-21T07:01:17.080Z,98785.50
2023-05-21T07:03:46.411Z,98774.50
2023-05-21T07:06:14.127Z,98775.44
2023-05-21T07:08:42.205Z,98779.03
2023-05-21T07:11:10.460Z,98774.03
2023-05-21T07:13:38.369Z,98768.13
2023-05-21T07:16:06.497Z,98782.09
2023-05-21T07:18:34.228Z,98780.31
2023-05-21T07:21:01.949Z,98776.44
2023-05-21T07:23:29.793Z,98784.31
2023-05-21T07:25:57.387Z,98783.31
2023-05-21T07:28:25.543Z,98777.94
2023-05-21T07:30:53.233Z,98778.91
2023-05-21T07:33:28.268Z,98769.78
2023-05-21T07:35:55.887Z,98776.19
2023-05-21T07:38:24.123Z,98773.16
2023-05-21T07:40:51.772Z,98775.47
2023-05-21T07:43:19.611Z,98768.66
2023-05-21T07:45:47.398Z,98769.28
2023-05-21T07:48:15.782Z,98758.34
2023-05-21T07:50:53.749Z,98763.66
2023-05-21T07:53:21.985Z,98766.44
2023-05-21T07:55:50.759Z,98761.63
2023-05-21T07:58:23.676Z,98754.72
2023-05-21T08:00:51.543Z,98756.75
2023-05-21T08:03:20.020Z,98756.97
2023-05-21T08:05:51.220Z,98753.44
2023-05-21T08:08:20.089Z,98762.06
2023-05-21T08:10:48.172Z,98747.66
2023-05-21T08:13:17.562Z,98747.00
2023-05-21T08:15:47.420Z,98735.78
2023-05-21T08:18:17.978Z,98743.31
2023-05-21T08:20:48.684Z,98743.16
2023-05-21T08:23:19.075Z,98741.53
2023-05-21T08:25:51.451Z,98753.22
2023-05-21T08:28:19.127Z,98743.47
2023-05-21T08:30:47.084Z,98740.31
2023-05-21T08:33:19.518Z,98740.75
2023-05-21T08:35:48.639Z,98750.47
2023-05-21T08:38:23.369Z,98733.22
2023-05-21T08:41:14.429Z,98740.97
2023-05-21T08:43:48.571Z,98741.84
2023-05-21T08:46:21.182Z,98748.84
2023-05-21T08:48:49.577Z,98744.56
2023-05-21T08:51:17.445Z,98734.13
2023-05-21T08:53:51.673Z,98738.78
2023-05-21T08:56:21.577Z,98740.09
2023-05-21T08:58:59.869Z,98728.88
2023-05-21T09:01:33.691Z,98731.69
2023-05-21T09:04:29.117Z,98724.34
2023-05-21T09:06:58.366Z,98724.09
2023-05-21T09:09:55.635Z,98731.25
2023-05-21T09:12:25.365Z,98728.69
2023-05-21T09:14:53.834Z,98737.38
2023-05-21T09:17:27.133Z,98721.31
2023-05-21T09:20:16.521Z,98736.13
2023-05-21T09:22:55.868Z,98724.59
2023-05-21T09:25:30.133Z,98728.94
2023-05-21T09:28:02.661Z,98729.91
2023-05-21T09:30:32.443Z,98732.47
2023-05-21T09:33:02.077Z,98719.47
2023-05-21T09:35:30.001Z,98725.78
2023-05-21T09:37:57.881Z,98718.06
2023-05-21T09:40:25.843Z,98723.66
2023-05-21T09:42:55.295Z,98725.38
2023-05-21T09:45:24.788Z,98728.41
2023-05-21T09:47:56.072Z,98729.13
2023-05-21T09:50:27.303Z,98729.78
2023-05-21T09:52:56.133Z,98728.47
2023-05-21T09:55:24.809Z,98728.66
2023-05-21T09:57:53.482Z,98731.34
2023-05-21T10:00:22.548Z,98725.47
2023-05-21T10:02:56.036Z,98726.94
2023-05-21T10:05:31.256Z,98734.81
2023-05-21T10:08:04.951Z,98731.16
2023-05-21T10:10:33.015Z,98726.94
2023-05-21T10:13:09.079Z,98726.53
2023-05-21T10:15:44.658Z,98723.50
2023-05-21T10:18:14.551Z,98732.28
2023-05-21T10:20:43.238Z,98724.19
2023-05-21T10:23:11.167Z,98719.31
2023-05-21T10:25:39.357Z,98717.44
2023-05-21T10:28:07.390Z,98729.31
2023-05-21T10:30:37.494Z,98728.56
2023-05-21T10:33:06.243Z,98720.06
2023-05-21T10:35:35.079Z,98724.03
2023-05-21T10:38:05.347Z,98728.38
2023-05-21T10:40:33.144Z,98714.44
2023-05-21T10:43:30.901Z,98731.22
2023-05-21T10:46:19.762Z,98724.84
2023-05-21T10:49:02.574Z,98725.91
2023-05-21T10:51:55.141Z,98730.25
2023-05-21T10:54:58.434Z,98727.81
2023-05-21T10:57:57.521Z,98727.69
2023-05-21T11:00:27.478Z,98725.88
2023-05-21T11:02:55.768Z,98717.16
2023-05-21T11:06:02.956Z,98724.34
2023-05-21T11:08:33.924Z,98720.16
2023-05-21T11:11:02.613Z,98717.44
2023-05-21T11:13:49.349Z,98723.59
2023-05-21T11:16:18.527Z,98715.19
2023-05-21T11:18:46.456Z,98710.63
2023-05-21T11:21:19.105Z,98708.31
2023-05-21T11:23:52.187Z,98711.09
2023-05-21T11:26:24.039Z,98713.28
2023-05-21T11:29:12.253Z,98708.75
2023-05-21T11:31:40.457Z,98707.34
2023-05-21T11:34:28.979Z,98700.41
2023-05-21T11:37:18.645Z,98706.44
2023-05-21T11:39:46.856Z,98697.47
2023-05-21T11:42:31.936Z,98702.84
2023-05-21T11:45:01.381Z,98705.84
2023-05-21T11:47:34.470Z,98696.03
2023-05-21T11:50:03.994Z,98708.59
2023-05-21T11:52:34.109Z,98689.63
2023-05-21T11:55:02.110Z,98694.31
2023-05-21T11:57:32.172Z,98695.06
2023-05-21T12:00:02.013Z,98706.06
2023-05-21T12:02:34.488Z,98700.09
2023-05-21T12:05:02.107Z,98689.41
2023-05-21T12:07:31.633Z,98693.59
2023-05-21T12:09:59.381Z,98698.88
2023-05-21T12:12:38.496Z,98698.75
2023-05-21T12:15:13.883Z,98692.75
2023-05-21T12:17:41.617Z,98690.78
2023-05-21T12:20:11.172Z,98696.50
2023-05-21T12:22:43.569Z,98694.94
2023-05-21T12:25:12.434Z,98686.38
2023-05-21T12:27:42.357Z,98686.53
2023-05-21T12:30:10.410Z,98695.22
2023-05-21T12:32:44.735Z,98693.66
2023-05-21T12:35:23.265Z,98698.75
2023-05-21T12:37:51.481Z,98686.72
2023-05-21T12:40:19.626Z,98683.06
2023-05-21T12:42:48.509Z,98683.69
2023-05-21T12:45:19.154Z,98685.22
2023-05-21T12:47:50.775Z,98684.94
2023-05-21T12:50:22.075Z,98679.06
2023-05-21T12:52:49.929Z,98669.81
2023-05-21T12:55:17.664Z,98673.06
2023-05-21T12:57:45.899Z,98669.38
2023-05-21T13:00:14.590Z,98673.84
2023-05-21T13:02:44.176Z,98670.59
2023-05-21T13:05:21.810Z,98685.72
2023-05-21T13:07:51.884Z,98672.75
2023-05-21T13:10:19.527Z,98667.53
2023-05-21T13:12:48.449Z,98667.50
2023-05-21T13:15:16.490Z,98667.34
2023-05-21T13:17:44.191Z,98667.50
2023-05-21T13:20:16.465Z,98667.06
2023-05-21T13:22:47.318Z,98679.06
2023-05-21T13:25:21.695Z,98681.53
2023-05-21T13:27:51.019Z,98677.94
2023-05-21T13:30:20.188Z,98680.09
2023-05-21T13:32:48.879Z,98682.53
2023-05-21T13:35:17.368Z,98671.13
2023-05-21T13:37:45.603Z,98673.75
2023-05-21T13:40:15.658Z,98682.38
2023-05-21T13:42:49.764Z,98681.44
2023-05-21T13:45:20.004Z,98688.84
2023-05-21T13:47:48.452Z,98678.16
2023-05-21T13:50:17.312Z,98687.22
2023-05-21T13:52:45.592Z,98677.47
2023-05-21T13:55:13.155Z,98681.91
2023-05-21T13:57:40.987Z,98678.81
2023-05-21T14:00:10.891Z,98686.94
2023-05-21T14:02:38.789Z,98682.75
2023-05-21T14:05:06.889Z,98679.03
2023-05-21T14:07:34.720Z,98681.19
2023-05-21T14:10:03.206Z,98681.75
2023-05-21T14:12:33.700Z,98676.47
2023-05-21T14:15:01.709Z,98676.59
2023-05-21T14:17:34.161Z,98675.09
2023-05-21T14:20:02.016Z,98675.34
2023-05-21T14:22:32.752Z,98677.47
2023-05-21T14:25:00.340Z,98677.59
2023-05-21T14:27:27.980Z,98676.31
2023-05-21T14:29:55.561Z,98677.03
2023-05-21T14:32:23.418Z,98674.72
2023-05-21T14:34:51.071Z,98669.72
2023-05-21T14:37:18.633Z,98661.34
2023-05-21T14:39:46.352Z,98670.22
2023-05-21T14:42:13.998Z,98663.41
2023-05-21T14:44:41.609Z,98667.50
2023-05-21T14:47:09.353Z,98676.69
2023-05-21T14:49:36.968Z,98663.91
2023-05-21T14:52:05.224Z,98676.28
2023-05-21T14:54:32.764Z,98669.47
2023-05-21T14:57:00.540Z,98677.44
2023-05-21T14:59:28.173Z,98673.69
2023-05-21T15:01:56.016Z,98667.16
2023-05-21T15:04:23.678Z,98669.69
2023-05-21T15:06:51.589Z,98663.19
2023-05-21T15:09:19.365Z,98660.31
2023-05-21T15:11:46.979Z,98670.63
2023-05-21T15:14:14.556Z,98661.31
2023-05-21T15:16:42.203Z,98662.66
2023-05-21T15:19:09.971Z,98664.44
2023-05-21T15:21:37.814Z,98662.97
2023-05-21T15:24:05.639Z,98666.66
2023-05-21T15:26:33.290Z,98671.19
2023-05-21T15:29:00.963Z,98667.75
2023-05-21T15:31:28.672Z,98668.38
2023-05-21T15:33:57.269Z,98669.69
2023-05-21T15:36:27.172Z,98655.53
2023-05-21T15:38:54.819Z,98663.16
2023-05-21T15:41:22.610Z,98679.16
2023-05-21T15:43:50.160Z,98680.13
2023-05-21T15:46:17.714Z,98670.09
2023-05-21T15:48:45.363Z,98676.81
2023-05-21T15:51:13.015Z,98670.72
2023-05-21T15:53:40.708Z,98680.00
2023-05-21T15:56:09.449Z,98679.84
2023-05-21T15:58:37.134Z,98682.03
2023-05-21T16:01:04.783Z,98682.56
2023-05-21T16:03:32.512Z,98684.19
2023-05-21T16:06:00.300Z,98680.03
2023-05-21T16:08:27.900Z,98687.06
2023-05-21T16:10:57.453Z,98688.53
2023-05-21T16:13:25.048Z,98687.41
2023-05-21T16:15:53.257Z,98688.72
2023-05-21T16:18:21.040Z,98694.84
2023-05-21T16:20:48.705Z,98697.66
2023-05-21T16:23:16.684Z,98689.06
2023-05-21T16:25:44.412Z,98683.81
2023-05-21T16:28:12.736Z,98693.53
2023-05-21T16:30:40.317Z,98696.47
2023-05-21T16:33:08.217Z,98691.22
2023-05-21T16:35:36.169Z,98685.78
2023-05-21T16:38:04.034Z,98710.59
2023-05-21T16:40:31.930Z,98701.59
2023-05-21T16:43:01.852Z,98712.69
2023-05-21T16:45:39.261Z,98710.09
2023-05-21T16:48:07.985Z,98713.72
2023-05-21T16:50:36.347Z,98718.53
2023-05-21T16:53:06.400Z,98714.63
2023-05-21T16:55:36.132Z,98715.91
2023-05-21T16:58:05.747Z,98716.78
2023-05-21T17:00:34.564Z,98712.56
2023-05-21T17:03:02.394Z,98705.91
2023-05-21T17:05:30.329Z,98710.38
2023-05-21T17:07:58.048Z,98711.66
2023-05-21T17:10:25.971Z,98707.06
2023-05-21T17:12:53.575Z,98706.72
2023-05-21T17:15:21.542Z,98709.09
2023-05-21T17:17:49.133Z,98709.63
2023-05-21T17:20:16.775Z,98713.19
2023-05-21T17:22:44.371Z,98706.66
2023-05-21T17:25:12.210Z,98708.25
2023-05-21T17:27:39.851Z,98710.38
2023-05-21T17:30:08.303Z,98714.38
2023-05-21T17:32:36.327Z,98716.00
2023-05-21T17:35:04.153Z,98706.25
2023-05-21T17:37:32.628Z,98710.75
2023-05-21T17:40:00.288Z,98716.63
2023-05-21T17:42:28.260Z,98720.28
2023-05-21T17:44:55.914Z,98717.94
2023-05-21T17:47:23.864Z,98721.19
2023-05-21T17:49:51.593Z,98714.97
2023-05-21T17:52:19.258Z,98723.63
2023-05-21T17:54:46.950Z,98723.34
2023-05-21T17:57:16.495Z,98736.25
2023-05-21T17:59:45.636Z,98735.44
2023-05-21T18:02:14.057Z,98729.56
2023-05-21T18:04:41.752Z,98737.50
2023-05-21T18:07:09.435Z,98735.38
2023-05-21T18:09:37.128Z,98741.75
2023-05-21T18:12:07.683Z,98735.94
2023-05-21T18:14:35.844Z,98738.38
2023-05-21T18:17:03.585Z,98735.63
2023-05-21T18:19:31.596Z,98730.28
2023-05-21T18:21:59.268Z,98726.91
2023-05-21T18:24:26.894Z,98725.84
2023-05-21T18:26:54.579Z,98727.66
2023-05-21T18:29:22.317Z,98731.66
2023-05-21T18:31:51.134Z,98718.38
2023-05-21T18:34:18.846Z,98722.31
2023-05-21T18:36:47.141Z,98722.31
2023-05-21T18:39:14.766Z,98718.44
2023-05-21T18:41:43.013Z,98719.56
2023-05-21T18:44:10.557Z,98719.13
2023-05-21T18:46:38.532Z,98718.34
2023-05-21T18:49:06.241Z,98719.94
2023-05-21T18:51:34.002Z,98728.94
2023-05-21T18:54:01.747Z,98725.03
2023-05-21T18:56:29.586Z,98727.78
2023-05-21T18:58:57.270Z,98725.06
2023-05-21T19:01:24.911Z,98736.44
2023-05-21T19:03:52.616Z,98728.28
2023-05-21T19:06:25.388Z,98726.72
2023-05-21T19:08:53.286Z,98735.31
2023-05-21T19:11:23.659Z,98740.84
2023-05-21T19:13:51.537Z,98734.59
2023-05-21T19:16:19.377Z,98735.34
2023-05-21T19:18:47.023Z,98731.88
2023-05-21T19:21:14.618Z,98724.47
2023-05-21T19:23:52.569Z,98738.59
2023-05-21T19:26:22.987Z,98730.81
2023-05-21T19:28:54.794Z,98729.63
2023-05-21T19:31:23.577Z,98741.00
2023-05-21T19:33:51.714Z,98728.13
2023-05-21T19:36:19.670Z,98730.56
2023-05-21T19:38:51.043Z,98735.28
2023-05-21T19:41:20.152Z,98732.88
2023-05-21T19:43:48.004Z,98733.34
2023-05-21T19:46:19.099Z,98730.63
2023-05-21T19:48:48.027Z,98721.25
2023-05-21T19:51:16.119Z,98718.66
2023-05-21T19:53:43.766Z,98729.56
2023-05-21T19:56:11.493Z,98726.91
2023-05-21T19:58:39.193Z,98728.13
2023-05-21T20:01:07.277Z,98736.72
2023-05-21T20:03:36.239Z,98730.13
2023-05-21T20:06:04.268Z,98738.38
2023-05-21T20:08:32.067Z,98727.88
2023-05-21T20:10:59.670Z,98733.00
2023-05-21T20:13:27.326Z,98741.25
2023-05-21T20:15:54.970Z,98751.06
2023-05-21T20:18:22.685Z,98735.47
2023-05-21T20:20:50.339Z,98725.09
2023-05-21T20:23:17.958Z,98748.94
2023-05-21T20:25:45.641Z,98754.00
2023-05-21T20:28:13.427Z,98744.22
2023-05-21T20:30:58.251Z,98753.06
2023-05-21T20:33:28.211Z,98754.00
2023-05-21T20:35:55.880Z,98743.94
2023-05-21T20:38:25.989Z,98755.69
2023-05-21T20:40:55.503Z,98749.41
2023-05-21T20:43:24.674Z,98749.84
2023-05-21T20:45:59.884Z,98764.31
2023-05-21T20:48:29.410Z,98764.31
2023-05-21T20:51:04.866Z,98756.91
2023-05-21T20:53:32.664Z,98755.72
2023-05-21T20:56:01.792Z,98749.50
2023-05-21T20:58:29.983Z,98750.66
2023-05-21T21:00:57.740Z,98748.69
2023-05-21T21:03:25.483Z,98754.97
2023-05-21T21:05:53.184Z,98751.06
2023-05-21T21:08:21.049Z,98751.09
2023-05-21T21:10:48.674Z,98749.16
2023-05-21T21:13:16.497Z,98748.38
2023-05-21T21:15:44.268Z,98753.84
2023-05-21T21:18:14.864Z,98750.38
2023-05-21T21:20:42.951Z,98755.47
2023-05-21T21:23:10.562Z,98760.56
2023-05-21T21:25:38.146Z,98761.78
2023-05-21T21:28:05.781Z,98755.88
2023-05-21T21:30:33.395Z,98764.47
2023-05-21T21:33:01.364Z,98757.06
2023-05-21T21:35:29.006Z,98760.97
2023-05-21T21:37:56.788Z,98764.50
2023-05-21T21:40:24.497Z,98765.28
2023-05-21T21:42:52.189Z,98763.75
2023-05-21T21:45:19.752Z,98767.28
2023-05-21T21:47:47.559Z,98768.41
2023-05-21T21:50:15.051Z,98774.28
2023-05-21T21:52:42.974Z,98776.63
2023-05-21T21:55:11.446Z,98769.25
2023-05-21T21:57:39.943Z,98773.53
2023-05-21T22:00:16.300Z,98781.72
2023-05-21T22:02:44.639Z,98780.97
2023-05-21T22:05:15.071Z,98768.09
2023-05-21T22:07:48.438Z,98779.03
2023-05-21T22:10:17.077Z,98777.88
2023-05-21T22:12:46.196Z,98784.91
2023-05-21T22:15:28.997Z,98784.06
2023-05-21T22:17:56.708Z,98779.44
2023-05-21T22:20:26.375Z,98783.38
2023-05-21T22:22:55.316Z,98770.09
2023-05-21T22:25:23.624Z,98778.72
2023-05-21T22:27:51.920Z,98781.84
2023-05-21T22:30:20.125Z,98793.53
2023-05-21T22:32:49.317Z,98799.41
2023-05-21T22:35:16.947Z,98793.97
2023-05-21T22:37:44.818Z,98793.19
2023-05-21T22:40:12.749Z,98792.41
2023-05-21T22:42:40.868Z,98791.22
2023-05-21T22:45:09.517Z,98798.66
2023-05-21T22:47:39.838Z,98793.19
2023-05-21T22:50:08.556Z,98793.56
2023-05-21T22:52:37.204Z,98802.16
2023-05-21T22:55:06.341Z,98799.44
2023-05-21T22:57:34.023Z,98787.72
2023-05-21T23:00:01.615Z,98786.94
2023-05-21T23:02:32.785Z,98795.94
2023-05-21T23:05:00.688Z,98795.50
2023-05-21T23:07:28.325Z,98797.84
2023-05-21T23:09:56.033Z,98792.41
2023-05-21T23:12:23.881Z,98797.09
2023-05-21T23:14:51.462Z,98792.00
2023-05-21T23:17:19.213Z,98792.81
2023-05-21T23:19:46.858Z,98789.28
2023-05-21T23:22:14.530Z,98802.16
2023-05-21T23:24:42.190Z,98796.69
2023-05-21T23:27:09.872Z,98800.59
2023-05-21T23:29:37.814Z,98799.41
2023-05-21T23:32:05.974Z,98803.34
2023-05-21T23:34:34.207Z,98807.59
2023-05-21T23:37:02.205Z,98815.03
2023-05-21T23:39:29.821Z,98798.59
2023-05-21T23:41:57.433Z,98799.00
2023-05-21T23:44:25.154Z,98797.81
2023-05-21T23:46:52.792Z,98811.88
2023-05-21T23:49:20.579Z,98813.03
2023-05-21T23:51:51.029Z,98810.31
2023-05-21T23:54:18.827Z,98812.25
2023-05-21T23:56:46.812Z,98813.00
2023-05-21T23:59:16.879Z,98818.47
